createdAt,value
2023-01-26T07:57:44.740Z,101745.34
2023-01-26T08:02:53.249Z,101760.22
2023-01-26T08:08:01.216Z,101744.69
2023-01-26T08:13:08.890Z,101730.06
2023-01-26T08:18:14.198Z,101732.88
2023-01-26T08:23:19.599Z,101742.03
2023-01-26T08:28:27.495Z,101740.13
2023-01-26T08:33:33.761Z,101749.28
2023-01-26T08:38:38.899Z,101749.78
2023-01-26T08:43:46.688Z,101751.06
2023-01-26T08:48:52.029Z,101754.03
2023-01-26T08:53:57.350Z,101761.16
2023-01-26T08:59:05.455Z,101760.72
2023-01-26T09:04:10.616Z,101765.97
2023-01-26T09:09:17.127Z,101759.41
2023-01-26T09:14:25.146Z,101765.53
2023-01-26T09:19:31.262Z,101766.47
2023-01-26T09:24:38.463Z,101768.31
2023-01-26T09:29:46.330Z,101765.97
2023-01-26T09:34:51.765Z,101779.19
2023-01-26T09:39:56.986Z,101772.25
2023-01-26T09:45:23.509Z,101769.06
2023-01-26T09:50:30.348Z,101775.94
2023-01-26T09:55:35.485Z,101768.53
2023-01-26T10:00:46.586Z,101782.25
2023-01-26T10:05:55.116Z,101769.66
2023-01-26T10:11:03.541Z,101767.94
2023-01-26T10:16:12.727Z,101762.00
2023-01-26T10:21:17.995Z,101764.44
2023-01-26T10:26:25.198Z,101747.47
2023-01-26T10:31:35.363Z,101761.13
2023-01-26T10:36:40.705Z,101751.03
2023-01-26T10:42:00.220Z,101743.59
2023-01-26T10:47:10.273Z,101734.44
2023-01-26T10:52:21.699Z,101728.19
2023-01-26T10:57:30.906Z,101722.81
2023-01-26T11:02:39.172Z,101712.94
2023-01-26T11:07:45.309Z,101719.19
2023-01-26T11:12:50.517Z,101712.75
2023-01-26T11:18:02.155Z,101707.97
2023-01-26T11:23:11.516Z,101706.34
2023-01-26T11:28:30.437Z,101709.63
2023-01-26T11:33:42.053Z,101713.53
2023-01-26T11:38:49.679Z,101690.59
2023-01-26T11:44:23.194Z,101695.81
2023-01-26T11:49:53.330Z,101686.56
2023-01-26T11:55:28.108Z,101678.25
2023-01-26T12:00:40.643Z,101680.78
2023-01-26T12:05:50.843Z,101680.75
2023-01-26T12:11:22.603Z,101683.06
2023-01-26T12:16:34.176Z,101671.84
2023-01-26T12:21:43.396Z,101667.34
2023-01-26T12:26:51.051Z,101669.75
2023-01-26T12:32:00.366Z,101656.84
2023-01-26T12:37:28.986Z,101647.56
2023-01-26T12:42:42.504Z,101640.75
2023-01-26T12:47:50.548Z,101637.28
2023-01-26T12:53:00.416Z,101637.28
2023-01-26T12:58:06.849Z,101637.28
2023-01-26T13:03:18.337Z,101635.72
2023-01-26T13:08:54.755Z,101623.19
2023-01-26T13:14:00.346Z,101615.78
2023-01-26T13:19:05.605Z,101612.63
2023-01-26T13:24:47.142Z,101607.72
2023-01-26T13:29:58.712Z,101613.59
2023-01-26T13:35:05.721Z,101620.31
2023-01-26T13:40:24.183Z,101619.56
2023-01-26T13:45:34.315Z,101611.00
2023-01-26T13:50:40.572Z,101613.50
2023-01-26T13:56:01.801Z,101614.28
2023-01-26T14:01:09.013Z,101630.34
2023-01-26T14:06:16.611Z,101615.00
2023-01-26T14:11:26.752Z,101627.78
2023-01-26T14:16:33.530Z,101625.16
2023-01-26T14:21:50.211Z,101629.25
2023-01-26T14:26:58.142Z,101630.75
2023-01-26T14:32:03.538Z,101627.31
2023-01-26T14:37:10.382Z,101630.63
2023-01-26T14:42:19.396Z,101622.16
2023-01-26T14:47:25.539Z,101626.50
2023-01-26T14:52:33.860Z,101618.22
2023-01-26T14:57:41.571Z,101629.28
2023-01-26T15:02:47.233Z,101636.06
2023-01-26T15:07:54.467Z,101636.06
2023-01-26T15:13:04.808Z,101642.88
2023-01-26T15:18:21.277Z,101636.91
2023-01-26T15:23:30.166Z,101646.13
2023-01-26T15:28:38.647Z,101643.44
2023-01-26T15:33:53.937Z,101647.72
2023-01-26T15:39:02.690Z,101639.28
2023-01-26T15:44:16.440Z,101646.97
2023-01-26T15:49:23.020Z,101646.09
2023-01-26T15:54:28.162Z,101644.41
2023-01-26T15:59:35.961Z,101639.34
2023-01-26T16:04:41.125Z,101633.41
2023-01-26T16:09:48.308Z,101642.72
2023-01-26T16:14:56.029Z,101639.41
2023-01-26T16:20:01.329Z,101635.09
2023-01-26T16:25:13.324Z,101639.41
2023-01-26T16:30:21.418Z,101629.31
2023-01-26T16:35:26.661Z,101631.97
2023-01-26T16:40:32.038Z,101638.03
2023-01-26T16:45:39.864Z,101627.97
2023-01-26T16:50:45.130Z,101628.03
2023-01-26T16:55:50.461Z,101628.94
2023-01-26T17:00:58.327Z,101632.47
2023-01-26T17:06:03.820Z,101634.22
2023-01-26T17:11:09.195Z,101639.41
2023-01-26T17:16:20.112Z,101643.78
2023-01-26T17:21:26.549Z,101645.53
2023-01-26T17:26:31.711Z,101649.88
2023-01-26T17:31:39.583Z,101649.91
2023-01-26T17:36:46.065Z,101650.88
2023-01-26T17:41:51.398Z,101651.81
2023-01-26T17:46:59.313Z,101655.34
2023-01-26T17:52:04.543Z,101665.72
2023-01-26T17:57:09.783Z,101667.53
2023-01-26T18:02:17.922Z,101656.63
2023-01-26T18:07:23.132Z,101655.03
2023-01-26T18:12:28.314Z,101654.22
2023-01-26T18:17:36.883Z,101652.63
2023-01-26T18:22:42.103Z,101649.28
2023-01-26T18:27:47.160Z,101657.81
2023-01-26T18:32:55.326Z,101656.97
2023-01-26T18:38:01.266Z,101661.28
2023-01-26T18:43:07.200Z,101662.19
2023-01-26T18:48:15.354Z,101651.09
2023-01-26T18:53:20.646Z,101659.72
2023-01-26T18:58:25.881Z,101645.28
2023-01-26T19:03:33.602Z,101641.91
2023-01-26T19:08:39.868Z,101653.78
2023-01-26T19:13:45.510Z,101639.38
2023-01-26T19:18:54.383Z,101637.03
2023-01-26T19:24:02.547Z,101640.59
2023-01-26T19:29:07.935Z,101629.56
2023-01-26T19:34:17.372Z,101637.31
2023-01-26T22:08:47.871Z,101590.72
2023-01-26T22:13:53.162Z,101577.56
2023-01-26T22:18:58.516Z,101573.50
2023-01-26T22:24:07.442Z,101580.19
2023-01-26T22:29:13.711Z,101576.34
2023-01-26T22:34:18.772Z,101575.75
2023-01-26T22:39:26.592Z,101564.09
2023-01-26T22:44:31.864Z,101565.03
2023-01-26T22:49:36.901Z,101560.78
2023-01-26T22:54:44.852Z,101552.13
2023-01-26T22:59:51.493Z,101573.91
2023-01-26T23:04:56.694Z,101557.34
2023-01-26T23:10:04.440Z,101568.09
2023-01-26T23:15:11.586Z,101558.53
2023-01-26T23:20:17.079Z,101560.97
2023-01-26T23:25:37.193Z,101558.34
2023-01-26T23:30:43.267Z,101572.81
2023-01-26T23:35:48.516Z,101562.69
